sensor_id;sensor_type;location;lat;lon;timestamp;pressure;altitude;pressure_sealevel;temperature;humidity
79067;BME280;68470;50.224;14.348;2023-06-05T00:00:00;99793.91;;;9.82;72.25
79067;BME280;68470;50.224;14.348;2023-06-05T00:02:26;99787.09;;;9.68;72.74
79067;BME280;68470;50.224;14.348;2023-06-05T00:04:53;99803.25;;;9.81;72.26
79067;BME280;68470;50.224;14.348;2023-06-05T00:07:19;99794.00;;;9.87;71.68
79067;BME280;68470;50.224;14.348;2023-06-05T00:09:45;99802.69;;;9.79;72.28
79067;BME280;68470;50.224;14.348;2023-06-05T00:12:11;99796.94;;;9.80;72.12
79067;BME280;68470;50.224;14.348;2023-06-05T00:14:37;99801.59;;;9.63;73.45
79067;BME280;68470;50.224;14.348;2023-06-05T00:17:03;99789.84;;;9.51;73.72
79067;BME280;68470;50.224;14.348;2023-06-05T00:19:29;99785.41;;;9.83;72.96
79067;BME280;68470;50.224;14.348;2023-06-05T00:21:56;99795.25;;;9.79;74.22
79067;BME280;68470;50.224;14.348;2023-06-05T00:24:22;99800.56;;;9.69;75.04
79067;BME280;68470;50.224;14.348;2023-06-05T00:26:48;99796.25;;;9.56;75.05
79067;BME280;68470;50.224;14.348;2023-06-05T00:29:14;99802.75;;;9.67;74.57
79067;BME280;68470;50.224;14.348;2023-06-05T00:31:40;99799.94;;;9.62;73.76
79067;BME280;68470;50.224;14.348;2023-06-05T00:34:06;99797.56;;;9.87;73.05
79067;BME280;68470;50.224;14.348;2023-06-05T00:36:32;99806.06;;;9.69;73.41
79067;BME280;68470;50.224;14.348;2023-06-05T00:38:58;99782.03;;;9.76;72.44
79067;BME280;68470;50.224;14.348;2023-06-05T00:41:23;99800.56;;;10.03;71.95
79067;BME280;68470;50.224;14.348;2023-06-05T00:43:50;99797.16;;;9.95;71.94
79067;BME280;68470;50.224;14.348;2023-06-05T00:46:15;99788.22;;;10.05;71.22
79067;BME280;68470;50.224;14.348;2023-06-05T00:48:41;99787.59;;;9.81;72.83
79067;BME280;68470;50.224;14.348;2023-06-05T00:51:09;99784.25;;;9.79;72.98
79067;BME280;68470;50.224;14.348;2023-06-05T00:53:40;99792.53;;;10.18;71.68
79067;BME280;68470;50.224;14.348;2023-06-05T00:56:07;99794.91;;;10.26;71.76
79067;BME280;68470;50.224;14.348;2023-06-05T00:58:33;99791.97;;;10.16;71.28
79067;BME280;68470;50.224;14.348;2023-06-05T01:01:01;99809.25;;;10.11;71.26
79067;BME280;68470;50.224;14.348;2023-06-05T01:03:30;99784.91;;;10.03;71.22
79067;BME280;68470;50.224;14.348;2023-06-05T01:06:02;99794.28;;;10.07;71.28
79067;BME280;68470;50.224;14.348;2023-06-05T01:08:35;99795.56;;;10.16;72.19
79067;BME280;68470;50.224;14.348;2023-06-05T01:13:54;99782.91;;;9.99;73.52
79067;BME280;68470;50.224;14.348;2023-06-05T01:16:24;99796.59;;;9.93;74.26
79067;BME280;68470;50.224;14.348;2023-06-05T01:19:00;99805.66;;;10.11;72.90
79067;BME280;68470;50.224;14.348;2023-06-05T01:21:31;99802.34;;;10.47;72.53
79067;BME280;68470;50.224;14.348;2023-06-05T01:23:58;99804.84;;;10.49;71.91
79067;BME280;68470;50.224;14.348;2023-06-05T01:26:40;99801.16;;;10.21;72.52
79067;BME280;68470;50.224;14.348;2023-06-05T01:29:11;99809.06;;;10.18;72.40
79067;BME280;68470;50.224;14.348;2023-06-05T01:31:42;99808.78;;;10.19;72.65
79067;BME280;68470;50.224;14.348;2023-06-05T01:34:11;99790.25;;;10.10;73.20
79067;BME280;68470;50.224;14.348;2023-06-05T01:36:40;99794.13;;;10.31;72.71
79067;BME280;68470;50.224;14.348;2023-06-05T01:39:07;99805.47;;;10.56;72.24
79067;BME280;68470;50.224;14.348;2023-06-05T01:41:34;99786.63;;;10.43;72.43
79067;BME280;68470;50.224;14.348;2023-06-05T01:44:01;99798.94;;;10.40;72.34
79067;BME280;68470;50.224;14.348;2023-06-05T01:46:27;99795.13;;;10.41;72.72
79067;BME280;68470;50.224;14.348;2023-06-05T01:48:53;99792.41;;;10.08;74.74
79067;BME280;68470;50.224;14.348;2023-06-05T01:51:19;99805.06;;;10.09;75.57
79067;BME280;68470;50.224;14.348;2023-06-05T01:53:45;99796.31;;;10.29;74.39
79067;BME280;68470;50.224;14.348;2023-06-05T01:56:15;99801.31;;;10.15;74.82
79067;BME280;68470;50.224;14.348;2023-06-05T01:58:46;99800.50;;;9.98;76.25
79067;BME280;68470;50.224;14.348;2023-06-05T02:01:12;99799.25;;;9.72;77.63
79067;BME280;68470;50.224;14.348;2023-06-05T02:03:39;99795.25;;;9.79;76.79
79067;BME280;68470;50.224;14.348;2023-06-05T02:06:05;99792.50;;;9.79;76.00
79067;BME280;68470;50.224;14.348;2023-06-05T02:08:31;99796.09;;;9.63;77.91
79067;BME280;68470;50.224;14.348;2023-06-05T02:11:00;99805.94;;;9.59;78.04
79067;BME280;68470;50.224;14.348;2023-06-05T02:13:27;99801.06;;;9.32;78.34
79067;BME280;68470;50.224;14.348;2023-06-05T02:15:53;99793.13;;;9.19;78.29
79067;BME280;68470;50.224;14.348;2023-06-05T02:18:22;99809.28;;;9.32;77.48
79067;BME280;68470;50.224;14.348;2023-06-05T02:20:53;99809.03;;;9.34;78.01
79067;BME280;68470;50.224;14.348;2023-06-05T02:23:19;99799.56;;;9.25;78.66
79067;BME280;68470;50.224;14.348;2023-06-05T02:25:45;99797.22;;;9.33;78.38
79067;BME280;68470;50.224;14.348;2023-06-05T02:28:12;99798.25;;;9.44;77.03
79067;BME280;68470;50.224;14.348;2023-06-05T02:30:38;99793.47;;;9.40;78.42
79067;BME280;68470;50.224;14.348;2023-06-05T02:33:05;99803.00;;;9.49;78.22
79067;BME280;68470;50.224;14.348;2023-06-05T02:35:31;99793.72;;;9.38;78.29
79067;BME280;68470;50.224;14.348;2023-06-05T02:37:57;99801.91;;;9.50;78.48
79067;BME280;68470;50.224;14.348;2023-06-05T02:40:23;99787.75;;;9.41;78.38
79067;BME280;68470;50.224;14.348;2023-06-05T02:42:49;99778.50;;;9.30;78.86
79067;BME280;68470;50.224;14.348;2023-06-05T02:45:15;99793.38;;;9.34;78.65
79067;BME280;68470;50.224;14.348;2023-06-05T02:47:42;99793.97;;;9.37;78.28
79067;BME280;68470;50.224;14.348;2023-06-05T02:50:07;99794.06;;;9.25;78.86
79067;BME280;68470;50.224;14.348;2023-06-05T02:52:34;99778.03;;;9.22;78.55
79067;BME280;68470;50.224;14.348;2023-06-05T02:55:02;99793.06;;;9.31;78.88
79067;BME280;68470;50.224;14.348;2023-06-05T02:57:29;99786.66;;;9.25;78.42
79067;BME280;68470;50.224;14.348;2023-06-05T02:59:54;99790.72;;;9.40;78.83
79067;BME280;68470;50.224;14.348;2023-06-05T03:02:22;99788.91;;;9.28;78.58
79067;BME280;68470;50.224;14.348;2023-06-05T03:04:48;99783.06;;;9.25;77.93
79067;BME280;68470;50.224;14.348;2023-06-05T03:07:21;99781.31;;;9.35;77.53
79067;BME280;68470;50.224;14.348;2023-06-05T03:09:48;99760.84;;;9.26;77.31
79067;BME280;68470;50.224;14.348;2023-06-05T03:12:14;99773.91;;;9.36;77.20
79067;BME280;68470;50.224;14.348;2023-06-05T03:14:40;99776.91;;;9.51;76.15
79067;BME280;68470;50.224;14.348;2023-06-05T03:17:06;99772.94;;;9.59;76.70
79067;BME280;68470;50.224;14.348;2023-06-05T03:19:32;99766.25;;;9.88;75.76
79067;BME280;68470;50.224;14.348;2023-06-05T03:21:59;99742.78;;;9.81;75.25
79067;BME280;68470;50.224;14.348;2023-06-05T03:24:24;99763.75;;;9.87;75.23
79067;BME280;68470;50.224;14.348;2023-06-05T03:26:50;99774.25;;;9.73;75.91
79067;BME280;68470;50.224;14.348;2023-06-05T03:29:16;99762.34;;;9.84;74.87
79067;BME280;68470;50.224;14.348;2023-06-05T03:31:42;99775.75;;;9.81;75.83
79067;BME280;68470;50.224;14.348;2023-06-05T03:34:08;99781.19;;;9.92;75.55
79067;BME280;68470;50.224;14.348;2023-06-05T03:36:34;99779.22;;;10.10;74.90
79067;BME280;68470;50.224;14.348;2023-06-05T03:39:00;99779.38;;;10.20;72.99
79067;BME280;68470;50.224;14.348;2023-06-05T03:41:26;99769.06;;;10.27;72.68
79067;BME280;68470;50.224;14.348;2023-06-05T03:43:52;99768.66;;;10.40;70.17
79067;BME280;68470;50.224;14.348;2023-06-05T03:46:19;99778.78;;;10.57;71.90
79067;BME280;68470;50.224;14.348;2023-06-05T03:48:48;99774.47;;;10.88;70.72
79067;BME280;68470;50.224;14.348;2023-06-05T03:51:15;99765.69;;;11.12;69.53
79067;BME280;68470;50.224;14.348;2023-06-05T03:53:43;99773.28;;;11.59;67.78
79067;BME280;68470;50.224;14.348;2023-06-05T03:56:10;99768.22;;;12.15;64.88
79067;BME280;68470;50.224;14.348;2023-06-05T03:58:37;99768.47;;;12.66;62.18
79067;BME280;68470;50.224;14.348;2023-06-05T04:01:05;99772.19;;;13.02;61.38
79067;BME280;68470;50.224;14.348;2023-06-05T04:03:31;99762.88;;;13.23;60.52
79067;BME280;68470;50.224;14.348;2023-06-05T04:05:59;99784.72;;;13.40;59.34
79067;BME280;68470;50.224;14.348;2023-06-05T04:08:26;99781.59;;;13.01;60.15
79067;BME280;68470;50.224;14.348;2023-06-05T04:10:52;99783.31;;;12.55;63.68
79067;BME280;68470;50.224;14.348;2023-06-05T04:13:18;99780.25;;;11.99;66.45
79067;BME280;68470;50.224;14.348;2023-06-05T04:15:44;99765.94;;;11.75;67.08
79067;BME280;68470;50.224;14.348;2023-06-05T04:18:09;99782.53;;;12.12;65.79
79067;BME280;68470;50.224;14.348;2023-06-05T04:20:36;99785.34;;;12.70;62.45
79067;BME280;68470;50.224;14.348;2023-06-05T04:23:02;99780.19;;;12.93;62.01
79067;BME280;68470;50.224;14.348;2023-06-05T04:25:28;99790.81;;;13.27;60.36
79067;BME280;68470;50.224;14.348;2023-06-05T04:27:55;99783.94;;;13.50;60.11
79067;BME280;68470;50.224;14.348;2023-06-05T04:30:23;99791.09;;;13.41;60.35
79067;BME280;68470;50.224;14.348;2023-06-05T04:32:50;99780.84;;;13.26;60.58
79067;BME280;68470;50.224;14.348;2023-06-05T04:35:25;99795.94;;;13.03;61.81
79067;BME280;68470;50.224;14.348;2023-06-05T04:37:50;99788.91;;;12.65;63.32
79067;BME280;68470;50.224;14.348;2023-06-05T04:40:17;99788.84;;;12.50;65.06
79067;BME280;68470;50.224;14.348;2023-06-05T04:42:45;99799.50;;;12.31;65.56
79067;BME280;68470;50.224;14.348;2023-06-05T04:45:11;99803.00;;;12.63;64.25
79067;BME280;68470;50.224;14.348;2023-06-05T04:47:37;99787.72;;;12.51;65.06
79067;BME280;68470;50.224;14.348;2023-06-05T04:50:05;99795.59;;;12.79;63.40
79067;BME280;68470;50.224;14.348;2023-06-05T04:52:32;99784.97;;;12.56;64.17
79067;BME280;68470;50.224;14.348;2023-06-05T04:54:59;99798.97;;;12.39;65.86
79067;BME280;68470;50.224;14.348;2023-06-05T04:57:28;99793.19;;;12.41;65.79
79067;BME280;68470;50.224;14.348;2023-06-05T04:59:55;99797.19;;;12.60;65.55
79067;BME280;68470;50.224;14.348;2023-06-05T05:02:22;99790.50;;;12.51;65.19
79067;BME280;68470;50.224;14.348;2023-06-05T05:04:48;99787.31;;;12.84;63.83
79067;BME280;68470;50.224;14.348;2023-06-05T05:07:14;99808.09;;;12.97;63.20
79067;BME280;68470;50.224;14.348;2023-06-05T05:09:44;99780.47;;;13.07;62.84
79067;BME280;68470;50.224;14.348;2023-06-05T05:12:11;99788.59;;;13.34;62.65
79067;BME280;68470;50.224;14.348;2023-06-05T05:14:38;99784.19;;;13.43;61.56
79067;BME280;68470;50.224;14.348;2023-06-05T05:17:05;99794.44;;;14.14;59.25
79067;BME280;68470;50.224;14.348;2023-06-05T05:19:31;99786.19;;;14.89;57.11
79067;BME280;68470;50.224;14.348;2023-06-05T05:21:57;99771.44;;;16.16;53.36
79067;BME280;68470;50.224;14.348;2023-06-05T05:24:23;99780.84;;;17.16;50.16
79067;BME280;68470;50.224;14.348;2023-06-05T05:26:51;99772.94;;;17.41;49.42
79067;BME280;68470;50.224;14.348;2023-06-05T05:29:17;99775.19;;;16.54;50.23
79067;BME280;68470;50.224;14.348;2023-06-05T05:31:43;99776.56;;;16.04;52.90
79067;BME280;68470;50.224;14.348;2023-06-05T05:34:09;99787.00;;;15.44;54.24
79067;BME280;68470;50.224;14.348;2023-06-05T05:36:35;99791.13;;;15.02;55.57
79067;BME280;68470;50.224;14.348;2023-06-05T05:39:02;99779.38;;;15.20;54.77
79067;BME280;68470;50.224;14.348;2023-06-05T05:41:28;99788.94;;;14.99;55.16
79067;BME280;68470;50.224;14.348;2023-06-05T05:43:54;99775.84;;;15.54;53.34
79067;BME280;68470;50.224;14.348;2023-06-05T05:46:24;99778.28;;;15.66;52.82
79067;BME280;68470;50.224;14.348;2023-06-05T05:48:51;99779.06;;;15.27;54.00
79067;BME280;68470;50.224;14.348;2023-06-05T05:51:17;99783.38;;;14.94;55.67
79067;BME280;68470;50.224;14.348;2023-06-05T05:53:43;99792.13;;;14.67;56.84
79067;BME280;68470;50.224;14.348;2023-06-05T05:56:11;99788.56;;;14.51;57.52
79067;BME280;68470;50.224;14.348;2023-06-05T05:58:37;99792.97;;;14.57;57.76
79067;BME280;68470;50.224;14.348;2023-06-05T06:01:04;99800.72;;;14.65;57.69
79067;BME280;68470;50.224;14.348;2023-06-05T06:03:30;99791.63;;;14.29;58.16
79067;BME280;68470;50.224;14.348;2023-06-05T06:05:59;99803.25;;;14.26;57.79
79067;BME280;68470;50.224;14.348;2023-06-05T06:08:25;99795.28;;;15.04;55.41
79067;BME280;68470;50.224;14.348;2023-06-05T06:10:52;99797.31;;;15.77;53.88
79067;BME280;68470;50.224;14.348;2023-06-05T06:13:18;99793.09;;;16.72;51.56
79067;BME280;68470;50.224;14.348;2023-06-05T06:15:44;99792.56;;;17.88;47.89
79067;BME280;68470;50.224;14.348;2023-06-05T06:18:10;99787.69;;;18.12;46.33
79067;BME280;68470;50.224;14.348;2023-06-05T06:20:36;99787.34;;;18.60;44.62
79067;BME280;68470;50.224;14.348;2023-06-05T06:23:02;99801.19;;;19.34;42.05
79067;BME280;68470;50.224;14.348;2023-06-05T06:25:32;99799.31;;;20.01;40.25
79067;BME280;68470;50.224;14.348;2023-06-05T06:28:00;99804.56;;;19.44;40.97
79067;BME280;68470;50.224;14.348;2023-06-05T06:30:26;99784.75;;;20.13;38.63
79067;BME280;68470;50.224;14.348;2023-06-05T06:32:53;99788.06;;;21.25;36.55
79067;BME280;68470;50.224;14.348;2023-06-05T06:35:24;99791.78;;;21.12;35.90
79067;BME280;68470;50.224;14.348;2023-06-05T06:37:53;99788.28;;;22.07;34.27
79067;BME280;68470;50.224;14.348;2023-06-05T06:40:20;99797.88;;;22.99;32.99
79067;BME280;68470;50.224;14.348;2023-06-05T06:42:46;99797.72;;;22.58;33.91
79067;BME280;68470;50.224;14.348;2023-06-05T06:45:12;99779.41;;;21.70;36.26
79067;BME280;68470;50.224;14.348;2023-06-05T06:47:38;99812.00;;;20.92;37.90
79067;BME280;68470;50.224;14.348;2023-06-05T06:50:06;99788.72;;;21.22;37.55
79067;BME280;68470;50.224;14.348;2023-06-05T06:52:34;99784.63;;;22.24;35.30
79067;BME280;68470;50.224;14.348;2023-06-05T06:54:59;99799.34;;;21.69;35.74
79067;BME280;68470;50.224;14.348;2023-06-05T06:57:25;99791.38;;;21.27;35.91
79067;BME280;68470;50.224;14.348;2023-06-05T06:59:51;99795.72;;;21.68;36.72
79067;BME280;68470;50.224;14.348;2023-06-05T07:02:20;99787.59;;;22.74;33.75
79067;BME280;68470;50.224;14.348;2023-06-05T07:04:46;99795.56;;;23.31;33.22
79067;BME280;68470;50.224;14.348;2023-06-05T07:07:16;99773.22;;;23.34;32.37
79067;BME280;68470;50.224;14.348;2023-06-05T07:09:43;99788.91;;;22.76;32.99
79067;BME280;68470;50.224;14.348;2023-06-05T07:12:12;99783.03;;;20.88;37.33
79067;BME280;68470;50.224;14.348;2023-06-05T07:14:38;99784.22;;;20.56;37.78
79067;BME280;68470;50.224;14.348;2023-06-05T07:17:05;99780.34;;;21.48;36.67
79067;BME280;68470;50.224;14.348;2023-06-05T07:19:32;99767.50;;;21.47;36.94
79067;BME280;68470;50.224;14.348;2023-06-05T07:22:02;99786.78;;;21.57;36.12
79067;BME280;68470;50.224;14.348;2023-06-05T07:24:30;99768.84;;;21.76;35.01
79067;BME280;68470;50.224;14.348;2023-06-05T07:26:58;99765.28;;;21.01;37.62
79067;BME280;68470;50.224;14.348;2023-06-05T07:29:24;99775.34;;;20.62;38.35
79067;BME280;68470;50.224;14.348;2023-06-05T07:31:51;99787.28;;;20.46;38.77
79067;BME280;68470;50.224;14.348;2023-06-05T07:34:18;99771.81;;;20.17;38.53
79067;BME280;68470;50.224;14.348;2023-06-05T07:36:46;99775.25;;;21.76;35.50
79067;BME280;68470;50.224;14.348;2023-06-05T07:39:16;99784.38;;;23.73;33.19
79067;BME280;68470;50.224;14.348;2023-06-05T07:41:42;99772.91;;;24.32;30.95
79067;BME280;68470;50.224;14.348;2023-06-05T07:44:14;99782.97;;;25.39;29.58
79067;BME280;68470;50.224;14.348;2023-06-05T07:46:40;99771.88;;;25.98;28.26
79067;BME280;68470;50.224;14.348;2023-06-05T07:49:07;99767.97;;;26.31;28.04
79067;BME280;68470;50.224;14.348;2023-06-05T07:51:33;99770.88;;;24.65;30.20
79067;BME280;68470;50.224;14.348;2023-06-05T07:54:11;99761.72;;;26.09;28.33
79067;BME280;68470;50.224;14.348;2023-06-05T07:56:37;99759.00;;;27.04;27.18
79067;BME280;68470;50.224;14.348;2023-06-05T07:59:04;99758.63;;;26.43;26.88
79067;BME280;68470;50.224;14.348;2023-06-05T08:01:32;99756.81;;;25.02;29.50
79067;BME280;68470;50.224;14.348;2023-06-05T08:04:03;99753.63;;;26.08;27.94
79067;BME280;68470;50.224;14.348;2023-06-05T08:06:32;99744.81;;;25.82;28.18
79067;BME280;68470;50.224;14.348;2023-06-05T08:09:01;99759.69;;;24.11;29.92
79067;BME280;68470;50.224;14.348;2023-06-05T08:11:29;99742.00;;;23.78;32.06
79067;BME280;68470;50.224;14.348;2023-06-05T08:13:55;99749.13;;;23.54;31.81
79067;BME280;68470;50.224;14.348;2023-06-05T08:16:21;99744.31;;;23.34;32.65
79067;BME280;68470;50.224;14.348;2023-06-05T08:18:47;99748.03;;;23.26;32.92
79067;BME280;68470;50.224;14.348;2023-06-05T08:21:14;99753.91;;;23.33;33.27
79067;BME280;68470;50.224;14.348;2023-06-05T08:23:41;99750.25;;;23.62;32.25
79067;BME280;68470;50.224;14.348;2023-06-05T08:26:07;99750.09;;;24.45;31.78
79067;BME280;68470;50.224;14.348;2023-06-05T08:28:40;99740.59;;;24.38;30.82
79067;BME280;68470;50.224;14.348;2023-06-05T08:31:09;99744.47;;;24.45;30.59
79067;BME280;68470;50.224;14.348;2023-06-05T08:33:36;99748.59;;;23.40;32.39
79067;BME280;68470;50.224;14.348;2023-06-05T08:36:03;99754.47;;;23.26;33.17
79067;BME280;68470;50.224;14.348;2023-06-05T08:38:30;99752.03;;;23.66;32.80
79067;BME280;68470;50.224;14.348;2023-06-05T08:41:00;99747.59;;;23.98;31.77
79067;BME280;68470;50.224;14.348;2023-06-05T08:43:26;99742.34;;;23.34;33.58
79067;BME280;68470;50.224;14.348;2023-06-05T08:45:55;99751.38;;;23.19;34.03
79067;BME280;68470;50.224;14.348;2023-06-05T08:48:24;99747.75;;;23.39;34.06
79067;BME280;68470;50.224;14.348;2023-06-05T08:50:51;99742.47;;;24.46;31.86
79067;BME280;68470;50.224;14.348;2023-06-05T08:53:17;99748.16;;;23.50;32.76
79067;BME280;68470;50.224;14.348;2023-06-05T08:55:45;99734.41;;;24.11;32.21
79067;BME280;68470;50.224;14.348;2023-06-05T08:58:13;99732.50;;;24.48;31.92
79067;BME280;68470;50.224;14.348;2023-06-05T09:00:39;99734.50;;;24.36;32.32
79067;BME280;68470;50.224;14.348;2023-06-05T09:03:05;99733.78;;;24.39;32.13
79067;BME280;68470;50.224;14.348;2023-06-05T09:05:31;99722.81;;;23.80;33.05
79067;BME280;68470;50.224;14.348;2023-06-05T09:07:58;99743.75;;;24.03;32.88
79067;BME280;68470;50.224;14.348;2023-06-05T09:10:27;99720.91;;;23.30;32.12
79067;BME280;68470;50.224;14.348;2023-06-05T09:13:02;99745.59;;;23.16;32.83
79067;BME280;68470;50.224;14.348;2023-06-05T09:15:29;99731.97;;;23.05;33.66
79067;BME280;68470;50.224;14.348;2023-06-05T09:18:08;99724.22;;;22.73;32.74
79067;BME280;68470;50.224;14.348;2023-06-05T09:20:40;99739.66;;;22.49;33.19
79067;BME280;68470;50.224;14.348;2023-06-05T09:23:28;99728.56;;;22.62;33.86
79067;BME280;68470;50.224;14.348;2023-06-05T09:25:57;99721.44;;;22.26;33.48
79067;BME280;68470;50.224;14.348;2023-06-05T09:28:24;99716.88;;;21.96;32.74
79067;BME280;68470;50.224;14.348;2023-06-05T09:31:02;99722.53;;;21.61;34.57
79067;BME280;68470;50.224;14.348;2023-06-05T09:33:32;99732.41;;;21.84;34.77
79067;BME280;68470;50.224;14.348;2023-06-05T09:36:12;99730.97;;;22.34;34.20
79067;BME280;68470;50.224;14.348;2023-06-05T09:38:39;99712.94;;;22.52;33.11
79067;BME280;68470;50.224;14.348;2023-06-05T09:41:13;99726.22;;;22.64;32.70
79067;BME280;68470;50.224;14.348;2023-06-05T09:43:46;99734.91;;;22.88;33.01
79067;BME280;68470;50.224;14.348;2023-06-05T09:46:14;99722.41;;;22.39;32.36
79067;BME280;68470;50.224;14.348;2023-06-05T09:48:41;99712.00;;;22.39;33.99
79067;BME280;68470;50.224;14.348;2023-06-05T09:51:10;99724.59;;;22.63;33.07
79067;BME280;68470;50.224;14.348;2023-06-05T09:53:45;99721.56;;;22.85;32.30
79067;BME280;68470;50.224;14.348;2023-06-05T09:56:14;99709.19;;;23.07;31.57
79067;BME280;68470;50.224;14.348;2023-06-05T09:58:48;99711.97;;;22.86;31.89
79067;BME280;68470;50.224;14.348;2023-06-05T10:01:16;99702.88;;;23.73;31.39
79067;BME280;68470;50.224;14.348;2023-06-05T10:03:47;99714.44;;;23.08;32.20
79067;BME280;68470;50.224;14.348;2023-06-05T10:06:16;99720.63;;;23.44;31.49
79067;BME280;68470;50.224;14.348;2023-06-05T10:08:42;99695.94;;;24.73;29.60
79067;BME280;68470;50.224;14.348;2023-06-05T10:11:10;99710.84;;;24.73;29.44
79067;BME280;68470;50.224;14.348;2023-06-05T10:13:36;99705.75;;;25.15;29.26
79067;BME280;68470;50.224;14.348;2023-06-05T10:16:03;99703.84;;;24.22;30.45
79067;BME280;68470;50.224;14.348;2023-06-05T10:18:29;99704.78;;;23.81;30.71
79067;BME280;68470;50.224;14.348;2023-06-05T10:20:57;99691.34;;;23.86;29.89
79067;BME280;68470;50.224;14.348;2023-06-05T10:23:23;99699.66;;;23.62;29.90
79067;BME280;68470;50.224;14.348;2023-06-05T10:25:51;99698.75;;;24.36;29.17
79067;BME280;68470;50.224;14.348;2023-06-05T10:28:22;99694.13;;;23.53;29.87
79067;BME280;68470;50.224;14.348;2023-06-05T10:36:13;99702.28;;;23.25;31.76
79067;BME280;68470;50.224;14.348;2023-06-05T10:38:44;99688.22;;;23.67;30.95
79067;BME280;68470;50.224;14.348;2023-06-05T10:41:11;99686.78;;;23.94;30.21
79067;BME280;68470;50.224;14.348;2023-06-05T10:43:51;99694.97;;;23.87;29.54
79067;BME280;68470;50.224;14.348;2023-06-05T10:51:38;99674.84;;;23.64;30.17
79067;BME280;68470;50.224;14.348;2023-06-05T10:54:06;99668.91;;;23.45;30.33
79067;BME280;68470;50.224;14.348;2023-06-05T10:59:31;99681.78;;;23.66;31.11
79067;BME280;68470;50.224;14.348;2023-06-05T11:07:20;99676.91;;;25.46;27.78
79067;BME280;68470;50.224;14.348;2023-06-05T11:10:10;99674.91;;;26.03;26.11
79067;BME280;68470;50.224;14.348;2023-06-05T11:15:39;99673.00;;;24.13;28.05
79067;BME280;68470;50.224;14.348;2023-06-05T11:18:29;99667.84;;;24.03;27.63
79067;BME280;68470;50.224;14.348;2023-06-05T11:20:55;99672.81;;;24.67;27.24
79067;BME280;68470;50.224;14.348;2023-06-05T11:23:22;99675.66;;;24.55;28.04
79067;BME280;68470;50.224;14.348;2023-06-05T11:25:53;99673.13;;;24.17;28.47
79067;BME280;68470;50.224;14.348;2023-06-05T11:28:42;99678.78;;;23.84;28.66
79067;BME280;68470;50.224;14.348;2023-06-05T11:31:08;99676.59;;;24.47;27.18
79067;BME280;68470;50.224;14.348;2023-06-05T11:33:34;99673.66;;;23.98;28.14
79067;BME280;68470;50.224;14.348;2023-06-05T11:36:03;99678.31;;;24.27;28.13
79067;BME280;68470;50.224;14.348;2023-06-05T11:38:30;99673.28;;;24.33;28.33
79067;BME280;68470;50.224;14.348;2023-06-05T11:40:56;99677.94;;;22.88;29.09
79067;BME280;68470;50.224;14.348;2023-06-05T11:43:22;99653.44;;;22.67;28.78
79067;BME280;68470;50.224;14.348;2023-06-05T11:45:55;99679.16;;;22.99;29.41
79067;BME280;68470;50.224;14.348;2023-06-05T11:48:23;99664.53;;;23.35;28.69
79067;BME280;68470;50.224;14.348;2023-06-05T11:51:02;99676.31;;;23.07;28.97
79067;BME280;68470;50.224;14.348;2023-06-05T11:53:35;99662.69;;;22.68;29.83
79067;BME280;68470;50.224;14.348;2023-06-05T11:56:12;99668.72;;;22.49;30.12
79067;BME280;68470;50.224;14.348;2023-06-05T11:58:41;99669.88;;;22.48;28.96
79067;BME280;68470;50.224;14.348;2023-06-05T12:01:33;99666.59;;;22.46;30.60
79067;BME280;68470;50.224;14.348;2023-06-05T12:04:04;99674.78;;;22.21;31.64
79067;BME280;68470;50.224;14.348;2023-06-05T12:06:44;99652.25;;;22.01;34.08
79067;BME280;68470;50.224;14.348;2023-06-05T12:09:13;99656.06;;;22.05;34.26
79067;BME280;68470;50.224;14.348;2023-06-05T12:11:40;99650.06;;;22.15;34.47
79067;BME280;68470;50.224;14.348;2023-06-05T12:14:06;99658.13;;;22.25;34.63
79067;BME280;68470;50.224;14.348;2023-06-05T12:16:38;99656.66;;;22.19;34.54
79067;BME280;68470;50.224;14.348;2023-06-05T12:21:38;99664.81;;;22.41;35.49
79067;BME280;68470;50.224;14.348;2023-06-05T12:24:05;99673.34;;;22.54;35.38
79067;BME280;68470;50.224;14.348;2023-06-05T12:26:54;99672.69;;;22.10;36.14
79067;BME280;68470;50.224;14.348;2023-06-05T12:29:23;99668.50;;;21.17;42.15
79067;BME280;68470;50.224;14.348;2023-06-05T12:31:50;99697.78;;;21.02;44.71
79067;BME280;68470;50.224;14.348;2023-06-05T12:34:16;99666.44;;;20.57;46.71
79067;BME280;68470;50.224;14.348;2023-06-05T12:36:43;99691.66;;;20.35;48.17
79067;BME280;68470;50.224;14.348;2023-06-05T12:39:11;99702.19;;;19.76;49.32
79067;BME280;68470;50.224;14.348;2023-06-05T12:41:38;99686.34;;;19.27;51.68
79067;BME280;68470;50.224;14.348;2023-06-05T12:44:05;99719.16;;;19.21;54.16
79067;BME280;68470;50.224;14.348;2023-06-05T12:46:32;99712.19;;;18.27;59.88
79067;BME280;68470;50.224;14.348;2023-06-05T12:48:59;99722.94;;;17.55;66.39
79067;BME280;68470;50.224;14.348;2023-06-05T12:51:26;99721.44;;;16.88;71.25
79067;BME280;68470;50.224;14.348;2023-06-05T12:53:56;99727.72;;;16.50;73.73
79067;BME280;68470;50.224;14.348;2023-06-05T12:56:25;99724.41;;;16.24;78.39
79067;BME280;68470;50.224;14.348;2023-06-05T12:58:54;99716.06;;;16.01;77.30
79067;BME280;68470;50.224;14.348;2023-06-05T13:01:21;99726.63;;;15.99;80.83
79067;BME280;68470;50.224;14.348;2023-06-05T13:03:47;99714.03;;;15.82;81.89
79067;BME280;68470;50.224;14.348;2023-06-05T13:06:15;99715.97;;;15.82;79.86
79067;BME280;68470;50.224;14.348;2023-06-05T13:08:42;99735.94;;;15.84;78.34
79067;BME280;68470;50.224;14.348;2023-06-05T13:11:07;99728.63;;;15.64;81.41
79067;BME280;68470;50.224;14.348;2023-06-05T13:13:36;99732.84;;;15.51;82.21
79067;BME280;68470;50.224;14.348;2023-06-05T13:16:02;99727.97;;;15.38;83.60
79067;BME280;68470;50.224;14.348;2023-06-05T13:18:30;99733.56;;;15.33;83.72
79067;BME280;68470;50.224;14.348;2023-06-05T13:20:59;99729.72;;;15.24;84.15
79067;BME280;68470;50.224;14.348;2023-06-05T13:23:27;99730.91;;;15.13;84.79